Time;durP1;ratioP1;P1;durP2;ratioP2;P2;SDS_P1;SDS_P2;PMS_P1;PMS_P2;Temp;Humidity;BMP_temperature;BMP_pressure;BME280_temperature;BME280_humidity;BME280_pressure;Samples;Min_cycle;Max_cycle;Signal;HPM_P1;HPM_P2
2022/11/08 00:02:08;;;;;;;7.73;7.03;;;;;;;;;;5052405;28;20484;-75
2022/11/08 00:04:35;;;;;;;8.63;7.40;;;;;;;;;;5051445;28;20448;-76
2022/11/08 00:15:17;;;;;;;8.80;7.90;;;;;;;;;;5071395;28;20931;-75
2022/11/08 00:17:44;;;;;;;8.80;8.00;;;;;;;;;;5071656;28;20979;-76
2022/11/08 00:20:11;;;;;;;23.97;8.60;;;;;;;;;;5071397;28;20436;-76
2022/11/08 00:22:38;;;;;;;8.47;7.40;;;;;;;;;;5070526;28;20467;-76
2022/11/08 00:25:06;;;;;;;8.40;7.50;;;;;;;;;;5071052;28;20453;-75
2022/11/08 00:27:34;;;;;;;8.77;7.90;;;;;;;;;;5071878;28;20440;-76
2022/11/08 00:30:01;;;;;;;7.90;7.20;;;;;;;;;;5072434;28;20480;-76
2022/11/08 00:32:29;;;;;;;11.50;7.90;;;;;;;;;;5069027;28;20469;-75
2022/11/08 00:34:56;;;;;;;7.90;7.10;;;;;;;;;;5068296;28;20428;-75
2022/11/08 00:37:23;;;;;;;8.33;7.27;;;;;;;;;;5066066;28;20449;-75
2022/11/08 00:39:50;;;;;;;9.27;8.33;;;;;;;;;;5070216;28;20448;-75
2022/11/08 00:42:17;;;;;;;8.90;7.97;;;;;;;;;;5060231;28;20457;-76
2022/11/08 00:44:45;;;;;;;9.33;7.93;;;;;;;;;;5061743;28;20441;-75
2022/11/08 00:47:12;;;;;;;8.43;7.63;;;;;;;;;;5063622;28;20452;-76
2022/11/08 00:49:39;;;;;;;8.30;7.47;;;;;;;;;;5070038;28;20479;-75
2022/11/08 00:52:07;;;;;;;8.30;7.50;;;;;;;;;;5070439;28;20828;-75
2022/11/08 00:54:34;;;;;;;9.50;8.60;;;;;;;;;;5070271;28;20452;-77
2022/11/08 00:57:01;;;;;;;9.03;8.00;;;;;;;;;;5070948;28;20451;-76
2022/11/08 00:59:28;;;;;;;8.33;7.40;;;;;;;;;;5062219;28;20436;-76
2022/11/08 01:01:56;;;;;;;8.53;7.67;;;;;;;;;;5070262;28;20440;-76
2022/11/08 01:04:23;;;;;;;8.10;7.40;;;;;;;;;;5068529;28;20444;-76
2022/11/08 01:06:50;;;;;;;8.90;8.00;;;;;;;;;;5066903;28;20444;-76
2022/11/08 01:09:17;;;;;;;9.80;8.07;;;;;;;;;;5070433;28;20477;-76
2022/11/08 01:11:46;;;;;;;9.47;8.17;;;;;;;;;;5070654;28;20893;-77
2022/11/08 01:14:14;;;;;;;11.40;8.00;;;;;;;;;;5051204;28;20812;-75
2022/11/08 01:16:41;;;;;;;9.27;8.37;;;;;;;;;;5050542;28;20457;-77
2022/11/08 01:19:10;;;;;;;10.00;8.33;;;;;;;;;;5050446;28;20445;-76
2022/11/08 01:21:37;;;;;;;11.23;8.20;;;;;;;;;;5050481;28;20446;-76
2022/11/08 01:24:04;;;;;;;8.27;7.57;;;;;;;;;;5049701;28;20462;-76
2022/11/08 01:26:31;;;;;;;8.30;7.50;;;;;;;;;;5050366;28;20518;-76
2022/11/08 01:28:59;;;;;;;7.90;7.20;;;;;;;;;;5050013;28;20456;-76
2022/11/08 01:31:27;;;;;;;10.03;8.60;;;;;;;;;;5050128;28;20449;-76
2022/11/08 01:33:54;;;;;;;9.00;8.20;;;;;;;;;;5048983;28;21030;-76
2022/11/08 01:36:24;;;;;;;9.97;8.97;;;;;;;;;;5050311;28;20450;-75
2022/11/08 01:38:52;;;;;;;9.87;8.87;;;;;;;;;;5064644;28;20449;-76
2022/11/08 01:41:19;;;;;;;10.10;9.10;;;;;;;;;;5064605;28;20437;-76
2022/11/08 01:43:47;;;;;;;9.60;8.80;;;;;;;;;;5067366;28;20476;-76
2022/11/08 01:46:38;;;;;;;9.77;8.83;;;;;;;;;;5068252;28;20451;-75
2022/11/08 01:49:20;;;;;;;9.80;8.50;;;;;;;;;;5061374;28;20444;-75
2022/11/08 01:51:50;;;;;;;12.23;8.50;;;;;;;;;;5074959;28;20532;-77
2022/11/08 01:54:20;;;;;;;11.90;8.43;;;;;;;;;;5077106;28;20439;-77
2022/11/08 01:56:47;;;;;;;10.00;9.00;;;;;;;;;;5077167;28;20456;-75
2022/11/08 01:59:16;;;;;;;10.63;9.50;;;;;;;;;;5077112;28;20444;-76
2022/11/08 02:01:43;;;;;;;10.67;9.67;;;;;;;;;;5076797;28;20436;-74
2022/11/08 02:04:11;;;;;;;10.00;8.97;;;;;;;;;;5076439;28;20456;-76
2022/11/08 02:06:38;;;;;;;9.17;8.37;;;;;;;;;;5076416;28;20444;-75
2022/11/08 02:09:09;;;;;;;10.07;9.07;;;;;;;;;;5076200;28;20439;-75
2022/11/08 02:11:37;;;;;;;11.20;9.57;;;;;;;;;;5076198;28;20445;-75
2022/11/08 02:14:05;;;;;;;9.77;8.73;;;;;;;;;;5075819;28;20464;-75
2022/11/08 02:16:32;;;;;;;10.37;9.30;;;;;;;;;;5076368;28;20436;-76
2022/11/08 02:18:59;;;;;;;11.13;9.63;;;;;;;;;;5076676;28;20444;-76
2022/11/08 02:21:28;;;;;;;11.87;10.23;;;;;;;;;;5077729;28;20439;-76
2022/11/08 02:23:58;;;;;;;10.83;9.80;;;;;;;;;;5077915;28;20465;-76
2022/11/08 02:26:26;;;;;;;11.93;9.20;;;;;;;;;;5078211;28;20454;-76
2022/11/08 02:28:53;;;;;;;10.13;9.10;;;;;;;;;;5078435;28;20447;-76
2022/11/08 02:31:20;;;;;;;10.13;8.87;;;;;;;;;;5079031;28;20510;-75
2022/11/08 02:33:49;;;;;;;10.70;9.80;;;;;;;;;;5078526;28;20479;-76
2022/11/08 02:36:17;;;;;;;10.00;9.00;;;;;;;;;;5077491;28;20450;-76
2022/11/08 02:38:46;;;;;;;10.73;9.63;;;;;;;;;;5076494;28;20452;-76
2022/11/08 02:41:15;;;;;;;11.60;10.50;;;;;;;;;;5077125;28;20446;-77
2022/11/08 02:43:42;;;;;;;12.00;9.77;;;;;;;;;;5075702;28;20465;-76
2022/11/08 02:46:09;;;;;;;10.40;9.40;;;;;;;;;;5076108;28;20439;-77
2022/11/08 02:48:36;;;;;;;11.27;10.17;;;;;;;;;;5076062;28;20451;-76
2022/11/08 02:51:03;;;;;;;10.60;9.70;;;;;;;;;;5076147;28;20479;-75
2022/11/08 02:53:30;;;;;;;10.63;9.63;;;;;;;;;;5076177;28;20464;-76
2022/11/08 02:55:57;;;;;;;10.20;9.20;;;;;;;;;;5076246;28;20450;-76
2022/11/08 02:58:26;;;;;;;10.00;9.00;;;;;;;;;;5076451;28;20448;-76
2022/11/08 03:00:53;;;;;;;11.27;10.17;;;;;;;;;;5072392;28;20488;-76
2022/11/08 03:03:20;;;;;;;11.77;10.57;;;;;;;;;;5069312;28;20465;-75
2022/11/08 03:05:47;;;;;;;11.97;10.70;;;;;;;;;;5072864;28;20441;-75
2022/11/08 03:08:15;;;;;;;11.30;10.20;;;;;;;;;;5072876;28;20437;-76
2022/11/08 03:10:42;;;;;;;11.80;10.47;;;;;;;;;;5072866;28;20483;-76
2022/11/08 03:13:09;;;;;;;11.37;10.17;;;;;;;;;;5071921;28;20466;-76
2022/11/08 03:15:37;;;;;;;11.10;10.00;;;;;;;;;;5072789;28;20457;-76
2022/11/08 03:18:04;;;;;;;11.50;10.40;;;;;;;;;;5072436;28;20444;-76
2022/11/08 03:20:31;;;;;;;10.60;9.70;;;;;;;;;;5072368;28;20937;-75
2022/11/08 03:22:58;;;;;;;10.97;9.93;;;;;;;;;;5072160;28;20984;-77
2022/11/08 03:25:25;;;;;;;11.10;10.10;;;;;;;;;;5072701;28;20442;-76
2022/11/08 03:27:52;;;;;;;10.80;9.70;;;;;;;;;;5072295;28;20452;-76
2022/11/08 03:30:20;;;;;;;11.30;10.20;;;;;;;;;;5072267;28;20471;-75
2022/11/08 03:32:49;;;;;;;12.30;11.10;;;;;;;;;;5072020;28;20476;-76
2022/11/08 03:35:17;;;;;;;10.97;9.70;;;;;;;;;;5072370;28;20542;-75
2022/11/08 03:37:49;;;;;;;10.80;9.70;;;;;;;;;;5072370;28;20450;-75
2022/11/08 03:40:17;;;;;;;13.10;9.93;;;;;;;;;;5072246;28;20730;-77
2022/11/08 03:42:44;;;;;;;12.10;9.93;;;;;;;;;;5070932;28;20474;-76
2022/11/08 03:45:11;;;;;;;12.87;10.00;;;;;;;;;;5069540;28;20448;-76
2022/11/08 03:47:38;;;;;;;10.73;9.63;;;;;;;;;;5072155;28;20435;-76
2022/11/08 03:50:07;;;;;;;10.90;9.87;;;;;;;;;;5071878;28;21015;-76
2022/11/08 03:52:40;;;;;;;10.90;10.07;;;;;;;;;;5071161;28;20470;-76
2022/11/08 03:55:09;;;;;;;11.50;10.50;;;;;;;;;;5071833;28;20446;-76
2022/11/08 03:57:36;;;;;;;12.27;10.97;;;;;;;;;;5071412;28;20450;-76
2022/11/08 04:00:03;;;;;;;11.37;10.20;;;;;;;;;;5071883;28;20446;-76
2022/11/08 04:02:31;;;;;;;12.23;9.93;;;;;;;;;;5071495;28;20472;-75
2022/11/08 04:04:58;;;;;;;10.70;9.70;;;;;;;;;;5071763;28;20562;-76
2022/11/08 04:07:27;;;;;;;11.30;10.30;;;;;;;;;;5071545;28;20492;-76
2022/11/08 04:09:54;;;;;;;11.47;10.37;;;;;;;;;;5071775;28;20484;-76
2022/11/08 04:15:16;;;;;;;11.10;9.70;;;;;;;;;;5071357;28;20501;-76
2022/11/08 04:23:16;;;;;;;9.30;8.40;;;;;;;;;;5070778;28;20560;-77
2022/11/08 04:25:43;;;;;;;11.27;10.23;;;;;;;;;;5071495;28;20922;-76
2022/11/08 04:28:10;;;;;;;10.77;9.73;;;;;;;;;;5071378;28;20965;-77
2022/11/08 04:30:38;;;;;;;9.67;8.83;;;;;;;;;;5071116;28;20480;-76
2022/11/08 04:33:05;;;;;;;10.87;9.90;;;;;;;;;;5070947;28;20472;-76
2022/11/08 04:35:32;;;;;;;11.00;9.57;;;;;;;;;;5071997;28;20455;-76
2022/11/08 04:38:00;;;;;;;13.83;9.70;;;;;;;;;;5071699;28;20446;-76
2022/11/08 04:40:30;;;;;;;11.23;10.10;;;;;;;;;;5071584;28;21266;-75
2022/11/08 04:42:57;;;;;;;10.33;9.33;;;;;;;;;;5070863;28;20467;-75
2022/11/08 04:45:24;;;;;;;10.07;8.93;;;;;;;;;;5070940;28;20439;-79
2022/11/08 04:47:51;;;;;;;9.77;8.73;;;;;;;;;;5071211;28;20463;-76
2022/11/08 04:50:18;;;;;;;10.00;8.97;;;;;;;;;;5071261;28;20480;-75
2022/11/08 04:52:51;;;;;;;10.93;9.67;;;;;;;;;;5070757;28;20858;-76
2022/11/08 04:55:18;;;;;;;9.27;8.40;;;;;;;;;;5071005;28;20821;-76
2022/11/08 04:57:46;;;;;;;10.97;9.97;;;;;;;;;;5068703;28;20441;-76
2022/11/08 05:00:14;;;;;;;10.97;9.97;;;;;;;;;;5061119;28;20469;-76
2022/11/08 05:02:41;;;;;;;10.17;9.27;;;;;;;;;;5063831;28;20993;-75
2022/11/08 05:05:09;;;;;;;10.50;9.50;;;;;;;;;;5071113;28;20454;-76
2022/11/08 05:07:36;;;;;;;10.27;9.23;;;;;;;;;;5070939;28;20441;-76
2022/11/08 05:10:03;;;;;;;11.30;10.13;;;;;;;;;;5070817;28;20805;-76
2022/11/08 05:12:30;;;;;;;12.97;10.73;;;;;;;;;;5070640;28;20894;-76
2022/11/08 05:14:58;;;;;;;18.80;14.87;;;;;;;;;;5070447;28;20965;-76
2022/11/08 05:17:26;;;;;;;11.30;10.20;;;;;;;;;;5070785;28;20468;-76
2022/11/08 05:25:22;;;;;;;10.63;9.70;;;;;;;;;;5070650;28;20412;-76
2022/11/08 05:27:49;;;;;;;10.13;9.33;;;;;;;;;;5070373;28;20450;-74
2022/11/08 05:30:17;;;;;;;13.50;11.83;;;;;;;;;;5070503;28;20478;-76
2022/11/08 05:32:44;;;;;;;14.90;13.30;;;;;;;;;;5069772;28;20530;-76
2022/11/08 05:35:11;;;;;;;14.40;12.90;;;;;;;;;;5070510;28;20458;-76
2022/11/08 05:37:41;;;;;;;12.33;10.67;;;;;;;;;;5071309;28;20461;-77
2022/11/08 05:40:10;;;;;;;16.33;12.90;;;;;;;;;;5071356;28;20426;-76
2022/11/08 05:42:37;;;;;;;13.17;10.53;;;;;;;;;;5070452;28;20464;-76
2022/11/08 05:45:04;;;;;;;13.03;11.63;;;;;;;;;;5070560;28;20444;-76
2022/11/08 05:47:32;;;;;;;13.10;10.70;;;;;;;;;;5070875;28;20452;-75
2022/11/08 05:49:59;;;;;;;11.10;10.10;;;;;;;;;;5067295;28;20449;-74
2022/11/08 05:52:26;;;;;;;22.80;19.03;;;;;;;;;;5070470;28;20474;-74
2022/11/08 05:54:54;;;;;;;14.80;11.53;;;;;;;;;;5071116;28;20442;-76
2022/11/08 05:57:21;;;;;;;12.53;11.33;;;;;;;;;;5070499;28;20935;-76
2022/11/08 05:59:48;;;;;;;11.77;10.67;;;;;;;;;;5070869;28;20965;-77
2022/11/08 06:02:17;;;;;;;11.70;10.30;;;;;;;;;;5070878;28;20453;-75
2022/11/08 06:04:45;;;;;;;10.93;9.93;;;;;;;;;;5069662;28;20446;-75
2022/11/08 06:07:12;;;;;;;14.50;10.80;;;;;;;;;;5069552;28;20829;-76
2022/11/08 06:09:39;;;;;;;12.33;10.23;;;;;;;;;;5070602;28;20450;-75
2022/11/08 06:12:07;;;;;;;11.30;10.10;;;;;;;;;;5070094;28;20534;-75
2022/11/08 06:14:34;;;;;;;12.03;10.93;;;;;;;;;;5069861;28;20518;-76
2022/11/08 06:17:01;;;;;;;11.17;10.13;;;;;;;;;;5070059;28;20948;-76
2022/11/08 06:19:28;;;;;;;10.77;9.77;;;;;;;;;;5070140;28;20448;-75
2022/11/08 06:21:56;;;;;;;11.17;10.13;;;;;;;;;;5070721;28;20797;-75
2022/11/08 06:24:24;;;;;;;10.60;9.57;;;;;;;;;;5070350;28;20449;-76
2022/11/08 06:26:51;;;;;;;11.20;10.10;;;;;;;;;;5070479;28;20438;-75
2022/11/08 06:29:18;;;;;;;10.70;9.80;;;;;;;;;;5070339;28;20931;-76
2022/11/08 06:31:45;;;;;;;11.13;9.93;;;;;;;;;;5069965;28;20476;-76
2022/11/08 06:34:12;;;;;;;12.73;11.17;;;;;;;;;;5069390;28;20480;-75
2022/11/08 06:36:39;;;;;;;12.07;10.93;;;;;;;;;;5073428;28;20441;-76
2022/11/08 06:39:07;;;;;;;11.33;10.20;;;;;;;;;;5077250;28;20456;-76
2022/11/08 06:41:35;;;;;;;11.40;10.20;;;;;;;;;;5072181;28;20448;-75
2022/11/08 06:44:02;;;;;;;11.57;10.37;;;;;;;;;;5072220;28;21008;-76
2022/11/08 06:46:29;;;;;;;14.13;10.77;;;;;;;;;;5072348;28;20548;-76
2022/11/08 06:48:56;;;;;;;12.13;11.03;;;;;;;;;;5072870;28;21250;-76
2022/11/08 06:51:23;;;;;;;14.00;11.37;;;;;;;;;;5072055;28;21005;-75
2022/11/08 06:53:50;;;;;;;11.90;10.63;;;;;;;;;;5072073;28;20991;-77
2022/11/08 06:56:18;;;;;;;11.90;10.80;;;;;;;;;;5071963;28;20446;-76
2022/11/08 06:58:45;;;;;;;12.90;11.57;;;;;;;;;;5071864;28;21040;-76
2022/11/08 07:01:13;;;;;;;13.33;11.97;;;;;;;;;;5071709;28;20445;-76
2022/11/08 07:03:40;;;;;;;11.83;10.73;;;;;;;;;;5070448;28;20969;-75
2022/11/08 07:06:07;;;;;;;11.70;10.60;;;;;;;;;;5071153;28;20456;-76
2022/11/08 07:08:35;;;;;;;12.50;11.30;;;;;;;;;;5071401;28;20441;-75
2022/11/08 07:11:02;;;;;;;10.83;9.83;;;;;;;;;;5070805;28;20473;-76
2022/11/08 07:13:30;;;;;;;14.60;10.40;;;;;;;;;;5069995;28;20464;-75
2022/11/08 07:15:58;;;;;;;12.30;10.53;;;;;;;;;;5070987;28;21266;-76
2022/11/08 07:18:26;;;;;;;11.20;10.20;;;;;;;;;;5070746;28;21008;-76
2022/11/08 07:20:53;;;;;;;11.13;9.97;;;;;;;;;;5071050;28;20788;-76
2022/11/08 07:23:20;;;;;;;11.47;10.40;;;;;;;;;;5070473;28;20466;-77
2022/11/08 07:25:47;;;;;;;12.17;10.00;;;;;;;;;;5071443;28;20476;-76
2022/11/08 07:28:16;;;;;;;11.27;10.27;;;;;;;;;;5071382;28;20755;-76
2022/11/08 07:30:44;;;;;;;10.13;9.10;;;;;;;;;;5071736;28;20457;-75
2022/11/08 07:33:11;;;;;;;10.73;9.70;;;;;;;;;;5070575;28;20933;-76
2022/11/08 07:35:39;;;;;;;10.43;9.53;;;;;;;;;;5071039;28;20444;-75
2022/11/08 07:38:07;;;;;;;10.80;9.70;;;;;;;;;;5071374;28;20438;-77
2022/11/08 07:40:34;;;;;;;9.70;8.80;;;;;;;;;;5071719;28;20901;-76
2022/11/08 07:43:01;;;;;;;9.83;8.83;;;;;;;;;;5070427;28;20527;-77
2022/11/08 07:45:29;;;;;;;12.80;8.57;;;;;;;;;;5071326;28;21033;-75
2022/11/08 07:48:01;;;;;;;11.13;9.07;;;;;;;;;;5071532;28;20491;-76
2022/11/08 07:50:28;;;;;;;12.33;9.60;;;;;;;;;;5071258;28;20931;-76
2022/11/08 07:52:55;;;;;;;13.33;9.53;;;;;;;;;;5070956;28;20561;-76
2022/11/08 07:55:23;;;;;;;14.70;10.07;;;;;;;;;;5070398;28;20439;-76
2022/11/08 07:57:50;;;;;;;9.97;8.63;;;;;;;;;;5071333;28;20457;-77
2022/11/08 08:00:17;;;;;;;10.73;8.90;;;;;;;;;;5071192;28;20455;-76
2022/11/08 08:02:44;;;;;;;10.10;8.70;;;;;;;;;;5070221;28;20509;-75
2022/11/08 08:05:12;;;;;;;8.70;7.80;;;;;;;;;;5071052;28;20454;-75
2022/11/08 08:07:39;;;;;;;9.40;8.53;;;;;;;;;;5073084;28;20449;-76
2022/11/08 08:10:07;;;;;;;9.30;8.20;;;;;;;;;;5074591;28;20451;-76
2022/11/08 08:12:34;;;;;;;8.93;8.20;;;;;;;;;;5071031;28;20990;-76
2022/11/08 08:15:01;;;;;;;11.17;8.67;;;;;;;;;;5071396;28;20452;-76
2022/11/08 08:17:28;;;;;;;11.83;8.80;;;;;;;;;;5071081;28;20445;-75
2022/11/08 08:19:55;;;;;;;8.93;8.23;;;;;;;;;;5070049;28;20754;-76
2022/11/08 08:22:23;;;;;;;8.07;7.27;;;;;;;;;;5069951;28;20456;-75
2022/11/08 08:24:50;;;;;;;8.30;7.60;;;;;;;;;;5069328;28;20452;-76
2022/11/08 08:27:17;;;;;;;10.17;8.00;;;;;;;;;;5069808;28;20440;-76
2022/11/08 08:29:45;;;;;;;8.50;7.70;;;;;;;;;;5070194;28;20448;-76
2022/11/08 08:32:12;;;;;;;9.27;8.47;;;;;;;;;;5069525;28;20484;-76
2022/11/08 08:34:39;;;;;;;9.23;7.63;;;;;;;;;;5068596;28;20457;-76
2022/11/08 08:37:06;;;;;;;8.80;7.90;;;;;;;;;;5069755;28;20662;-76
2022/11/08 08:39:34;;;;;;;8.70;7.10;;;;;;;;;;5069961;28;20448;-76
2022/11/08 08:42:01;;;;;;;9.00;8.20;;;;;;;;;;5070302;28;20441;-76
2022/11/08 08:44:28;;;;;;;8.53;7.73;;;;;;;;;;5069375;28;20452;-76
2022/11/08 08:46:56;;;;;;;7.80;7.03;;;;;;;;;;5069467;28;20440;-76
2022/11/08 08:49:23;;;;;;;5.53;5.13;;;;;;;;;;5070042;28;20476;-75
2022/11/08 08:51:50;;;;;;;7.40;5.23;;;;;;;;;;5069275;28;20484;-75
2022/11/08 08:54:17;;;;;;;5.67;4.10;;;;;;;;;;5068793;28;20445;-76
2022/11/08 08:56:45;;;;;;;6.70;3.67;;;;;;;;;;5069536;28;20448;-76
2022/11/08 08:59:13;;;;;;;6.57;3.60;;;;;;;;;;5067960;28;20445;-76
2022/11/08 09:01:40;;;;;;;6.17;3.90;;;;;;;;;;5070370;28;20968;-76
2022/11/08 09:04:07;;;;;;;4.43;3.17;;;;;;;;;;5069721;28;20467;-76
2022/11/08 09:06:34;;;;;;;3.57;3.23;;;;;;;;;;5069392;28;20448;-74
2022/11/08 09:09:01;;;;;;;5.63;4.70;;;;;;;;;;5068847;28;20449;-75
2022/11/08 09:11:29;;;;;;;7.47;6.77;;;;;;;;;;5068663;28;20503;-75
2022/11/08 09:13:57;;;;;;;12.43;6.90;;;;;;;;;;5051905;28;20548;-75
2022/11/08 09:16:24;;;;;;;10.70;6.87;;;;;;;;;;5048870;28;20484;-75
2022/11/08 09:18:51;;;;;;;12.83;7.17;;;;;;;;;;5048551;28;20444;-75
2022/11/08 09:21:18;;;;;;;8.30;7.03;;;;;;;;;;5048247;28;20981;-75
2022/11/08 09:23:45;;;;;;;8.67;6.77;;;;;;;;;;5048297;28;20838;-74
2022/11/08 09:26:12;;;;;;;15.63;7.47;;;;;;;;;;5048538;28;20904;-76
2022/11/08 09:28:39;;;;;;;11.13;7.33;;;;;;;;;;5048694;28;20445;-75
2022/11/08 09:31:08;;;;;;;7.87;7.07;;;;;;;;;;5047747;28;20437;-75
2022/11/08 09:33:36;;;;;;;13.40;6.83;;;;;;;;;;5047678;28;20477;-75
2022/11/08 09:36:04;;;;;;;10.73;6.90;;;;;;;;;;5047784;28;20817;-75
2022/11/08 09:38:31;;;;;;;10.37;7.20;;;;;;;;;;5047852;28;20442;-75
2022/11/08 09:41:04;;;;;;;9.00;8.10;;;;;;;;;;5047652;28;20441;-75
2022/11/08 09:43:42;;;;;;;9.60;8.53;;;;;;;;;;5047538;28;20473;-74
2022/11/08 09:46:11;;;;;;;12.90;8.87;;;;;;;;;;5048035;28;20537;-75
2022/11/08 09:48:41;;;;;;;11.33;8.10;;;;;;;;;;5047416;28;20449;-75
2022/11/08 09:51:13;;;;;;;12.80;8.10;;;;;;;;;;5047414;28;20453;-75
2022/11/08 09:53:44;;;;;;;12.20;7.50;;;;;;;;;;5046646;28;20472;-75
2022/11/08 09:56:14;;;;;;;10.73;8.13;;;;;;;;;;5047453;28;20426;-75
2022/11/08 09:58:43;;;;;;;10.20;7.00;;;;;;;;;;5047446;28;20922;-75
2022/11/08 10:01:13;;;;;;;7.43;6.73;;;;;;;;;;5047720;28;20823;-76
2022/11/08 10:03:43;;;;;;;7.83;6.83;;;;;;;;;;5046777;28;20976;-75
2022/11/08 10:06:18;;;;;;;11.17;7.70;;;;;;;;;;5047635;28;20445;-76
2022/11/08 10:08:50;;;;;;;9.50;6.43;;;;;;;;;;5047900;28;20453;-75
2022/11/08 10:11:23;;;;;;;11.00;7.63;;;;;;;;;;5051732;28;20449;-76
2022/11/08 10:13:56;;;;;;;12.83;8.50;;;;;;;;;;5066383;28;20460;-76
2022/11/08 10:16:27;;;;;;;8.13;6.53;;;;;;;;;;5071299;28;20467;-75
2022/11/08 10:19:02;;;;;;;7.17;6.20;;;;;;;;;;5071245;28;20428;-75
2022/11/08 10:21:42;;;;;;;7.93;6.07;;;;;;;;;;5071296;28;20448;-75
2022/11/08 10:24:13;;;;;;;7.10;6.30;;;;;;;;;;5070318;28;20483;-76
2022/11/08 10:26:44;;;;;;;8.30;6.83;;;;;;;;;;5071015;28;20471;-75
2022/11/08 10:29:16;;;;;;;11.83;7.00;;;;;;;;;;5071214;28;20452;-75
2022/11/08 10:31:47;;;;;;;7.43;6.70;;;;;;;;;;5076110;28;20579;-75
2022/11/08 10:34:15;;;;;;;10.77;6.60;;;;;;;;;;5067093;28;20461;-75
2022/11/08 10:36:44;;;;;;;7.27;6.20;;;;;;;;;;5070629;28;20531;-75
2022/11/08 10:39:14;;;;;;;8.23;5.90;;;;;;;;;;5068031;28;20471;-75
2022/11/08 10:41:43;;;;;;;6.97;6.20;;;;;;;;;;5071910;28;20444;-76
2022/11/08 10:44:14;;;;;;;7.83;5.63;;;;;;;;;;5070955;28;20952;-74
2022/11/08 10:46:42;;;;;;;6.77;6.13;;;;;;;;;;5071072;28;20505;-75
2022/11/08 10:49:16;;;;;;;6.60;6.00;;;;;;;;;;5071387;28;20444;-76
2022/11/08 10:51:43;;;;;;;12.67;6.87;;;;;;;;;;5065607;28;20450;-75
2022/11/08 10:54:33;;;;;;;9.97;6.30;;;;;;;;;;5065811;28;20499;-74
2022/11/08 10:57:00;;;;;;;8.90;5.80;;;;;;;;;;5070556;28;20440;-75
2022/11/08 10:59:29;;;;;;;10.00;6.80;;;;;;;;;;5070510;28;20433;-75
2022/11/08 11:01:56;;;;;;;11.03;6.80;;;;;;;;;;5070275;28;21007;-75
2022/11/08 11:04:27;;;;;;;7.80;6.23;;;;;;;;;;5070052;28;20952;-75
2022/11/08 11:06:54;;;;;;;9.43;6.80;;;;;;;;;;5066459;28;20445;-75
2022/11/08 11:09:23;;;;;;;9.60;6.70;;;;;;;;;;5070483;28;20448;-76
2022/11/08 11:11:56;;;;;;;8.70;6.90;;;;;;;;;;5071594;28;20477;-75
2022/11/08 11:14:23;;;;;;;7.23;5.97;;;;;;;;;;5078598;28;20429;-75
2022/11/08 11:16:54;;;;;;;31.93;28.60;;;;;;;;;;5076754;28;20444;-75
2022/11/08 11:19:22;;;;;;;7.60;6.90;;;;;;;;;;5076080;28;20429;-75
2022/11/08 11:21:54;;;;;;;11.23;9.23;;;;;;;;;;5074847;28;20970;-75
2022/11/08 11:24:21;;;;;;;8.20;6.30;;;;;;;;;;5076591;28;20448;-74
2022/11/08 11:26:49;;;;;;;6.47;5.83;;;;;;;;;;5073005;28;20960;-74
2022/11/08 11:29:18;;;;;;;5.43;4.93;;;;;;;;;;5071230;28;20484;-74
2022/11/08 11:31:46;;;;;;;10.37;5.50;;;;;;;;;;5070173;28;20436;-75
2022/11/08 11:34:25;;;;;;;6.40;4.83;;;;;;;;;;5069220;28;20472;-74
2022/11/08 11:36:55;;;;;;;9.90;4.77;;;;;;;;;;5065127;28;20492;-75
2022/11/08 11:39:23;;;;;;;4.30;3.90;;;;;;;;;;5069511;28;20452;-75
2022/11/08 11:41:54;;;;;;;3.90;3.60;;;;;;;;;;5069952;28;20432;-75
2022/11/08 11:44:22;;;;;;;4.87;3.30;;;;;;;;;;5069730;28;20440;-74
2022/11/08 11:46:53;;;;;;;4.07;2.57;;;;;;;;;;5069996;28;20459;-74
2022/11/08 11:49:21;;;;;;;3.50;2.50;;;;;;;;;;5069943;28;20445;-74
2022/11/08 11:51:52;;;;;;;2.57;2.37;;;;;;;;;;5069991;28;20447;-75
2022/11/08 11:54:20;;;;;;;2.97;2.10;;;;;;;;;;5069097;28;20476;-74
2022/11/08 11:56:53;;;;;;;2.77;2.57;;;;;;;;;;5069591;28;20444;-75
2022/11/08 11:59:29;;;;;;;4.00;2.90;;;;;;;;;;5069715;28;20444;-75
2022/11/08 12:02:08;;;;;;;3.40;2.70;;;;;;;;;;5069714;28;20421;-75
2022/11/08 12:04:53;;;;;;;2.60;2.20;;;;;;;;;;5069291;28;20469;-76
2022/11/08 12:07:22;;;;;;;5.27;1.93;;;;;;;;;;5076217;28;20448;-75
2022/11/08 12:09:56;;;;;;;1.87;1.77;;;;;;;;;;5086302;28;20437;-75
2022/11/08 12:12:28;;;;;;;2.17;1.87;;;;;;;;;;5085939;28;20484;-74
2022/11/08 12:14:58;;;;;;;2.00;1.90;;;;;;;;;;5078271;28;20432;-74
2022/11/08 12:17:33;;;;;;;2.07;1.90;;;;;;;;;;5081861;28;21197;-75
2022/11/08 12:20:07;;;;;;;2.73;2.47;;;;;;;;;;5069594;28;20474;-75
2022/11/08 12:22:42;;;;;;;2.60;2.30;;;;;;;;;;5068923;28;20456;-75
2022/11/08 12:25:14;;;;;;;5.00;2.70;;;;;;;;;;5069305;28;20450;-75
2022/11/08 12:27:45;;;;;;;3.53;2.70;;;;;;;;;;5069651;28;20428;-74
2022/11/08 12:30:16;;;;;;;3.33;2.67;;;;;;;;;;5068885;28;20436;-74
2022/11/08 12:32:51;;;;;;;3.63;2.10;;;;;;;;;;5068314;28;20995;-74
2022/11/08 12:35:24;;;;;;;2.07;1.83;;;;;;;;;;5068786;28;20432;-74
2022/11/08 12:37:57;;;;;;;2.33;2.03;;;;;;;;;;5069066;28;20429;-73
2022/11/08 12:40:29;;;;;;;1.60;1.50;;;;;;;;;;5068670;28;20486;-75
2022/11/08 12:43:00;;;;;;;4.67;1.60;;;;;;;;;;5068621;28;20457;-74
2022/11/08 12:45:32;;;;;;;3.40;1.90;;;;;;;;;;5068765;28;20964;-75
2022/11/08 12:48:05;;;;;;;1.70;1.60;;;;;;;;;;5068681;28;20448;-75
2022/11/08 12:50:35;;;;;;;2.00;1.77;;;;;;;;;;5069681;28;20425;-75
2022/11/08 12:53:15;;;;;;;1.77;1.63;;;;;;;;;;5068578;28;20484;-75
2022/11/08 12:55:47;;;;;;;3.50;1.50;;;;;;;;;;5068992;28;20634;-74
2022/11/08 12:58:23;;;;;;;2.27;2.07;;;;;;;;;;5069083;28;20530;-74
2022/11/08 13:00:52;;;;;;;2.07;1.67;;;;;;;;;;5069895;28;20444;-75
2022/11/08 13:03:28;;;;;;;3.13;1.70;;;;;;;;;;5073885;28;20461;-74
2022/11/08 13:06:00;;;;;;;1.80;1.70;;;;;;;;;;5094605;28;20425;-74
2022/11/08 13:08:31;;;;;;;3.50;1.90;;;;;;;;;;5094323;28;20534;-74
2022/11/08 13:11:01;;;;;;;2.90;1.80;;;;;;;;;;5094971;28;20443;-74
2022/11/08 13:13:31;;;;;;;2.17;2.03;;;;;;;;;;5094572;28;20472;-75
2022/11/08 13:16:09;;;;;;;2.60;2.17;;;;;;;;;;5094835;28;20409;-74
2022/11/08 13:18:37;;;;;;;3.60;2.40;;;;;;;;;;5094688;28;20561;-73
2022/11/08 13:21:19;;;;;;;2.13;1.93;;;;;;;;;;5094425;28;20439;-74
2022/11/08 13:23:46;;;;;;;2.53;1.90;;;;;;;;;;5093113;28;20466;-74
2022/11/08 13:26:20;;;;;;;3.20;2.03;;;;;;;;;;5087048;28;20668;-74
2022/11/08 13:28:48;;;;;;;2.53;2.33;;;;;;;;;;5088070;28;20446;-75
2022/11/08 13:31:23;;;;;;;3.33;1.70;;;;;;;;;;5077410;28;20458;-74
2022/11/08 13:33:58;;;;;;;2.80;1.70;;;;;;;;;;5067826;28;20488;-75
2022/11/08 13:36:32;;;;;;;2.83;1.80;;;;;;;;;;5068513;28;20983;-75
2022/11/08 13:39:05;;;;;;;4.07;1.87;;;;;;;;;;5068786;28;20428;-74
2022/11/08 13:41:54;;;;;;;2.43;2.23;;;;;;;;;;5068379;28;20459;-75
2022/11/08 13:44:38;;;;;;;5.07;4.57;;;;;;;;;;5067500;28;20453;-75
2022/11/08 13:47:29;;;;;;;2.40;2.20;;;;;;;;;;5068152;28;20451;-75
2022/11/08 13:50:23;;;;;;;3.23;2.27;;;;;;;;;;5070286;28;20448;-75
2022/11/08 13:53:02;;;;;;;4.53;2.07;;;;;;;;;;5069558;28;20487;-75
2022/11/08 13:55:45;;;;;;;2.83;2.00;;;;;;;;;;5073114;28;20444;-75
2022/11/08 13:58:26;;;;;;;3.67;2.00;;;;;;;;;;5073736;28;20448;-75
2022/11/08 14:00:54;;;;;;;3.70;2.00;;;;;;;;;;5073979;28;20443;-75
2022/11/08 14:03:39;;;;;;;4.70;2.23;;;;;;;;;;5072956;28;20464;-75
2022/11/08 14:06:12;;;;;;;4.77;2.70;;;;;;;;;;5073263;28;20467;-75
2022/11/08 14:08:44;;;;;;;6.33;4.00;;;;;;;;;;5070199;28;20432;-75
2022/11/08 14:11:29;;;;;;;3.60;3.00;;;;;;;;;;5069688;28;20421;-75
2022/11/08 14:14:11;;;;;;;5.10;3.23;;;;;;;;;;5069114;28;20482;-75
2022/11/08 14:16:43;;;;;;;3.70;3.40;;;;;;;;;;5075770;28;20463;-76
2022/11/08 14:19:21;;;;;;;7.23;3.53;;;;;;;;;;5069774;28;20447;-75
2022/11/08 14:21:51;;;;;;;6.50;3.97;;;;;;;;;;5069840;28;20509;-76
2022/11/08 14:24:20;;;;;;;8.07;4.37;;;;;;;;;;5070433;28;20540;-75
2022/11/08 14:26:47;;;;;;;4.60;4.17;;;;;;;;;;5071029;28;20433;-76
2022/11/08 14:29:18;;;;;;;3.87;2.87;;;;;;;;;;5092718;28;20425;-74
2022/11/08 14:31:45;;;;;;;5.53;3.50;;;;;;;;;;5093182;28;20534;-75
2022/11/08 14:34:29;;;;;;;3.70;3.17;;;;;;;;;;5094242;28;20476;-75
2022/11/08 14:36:57;;;;;;;4.40;1.97;;;;;;;;;;5095416;28;20443;-75
2022/11/08 14:39:26;;;;;;;4.40;2.20;;;;;;;;;;5095146;28;20439;-75
2022/11/08 14:41:54;;;;;;;3.27;2.00;;;;;;;;;;5080500;28;20447;-75
2022/11/08 14:44:21;;;;;;;1.93;1.83;;;;;;;;;;5070603;28;20441;-75
2022/11/08 14:46:48;;;;;;;2.57;2.37;;;;;;;;;;5070624;28;20444;-76
2022/11/08 14:49:20;;;;;;;3.70;2.20;;;;;;;;;;5070231;28;20440;-76
2022/11/08 14:51:47;;;;;;;3.63;2.17;;;;;;;;;;5070227;28;20432;-74
2022/11/08 14:54:17;;;;;;;2.77;2.50;;;;;;;;;;5068928;28;20472;-75
2022/11/08 14:56:45;;;;;;;4.60;2.70;;;;;;;;;;5071247;28;20439;-76
2022/11/08 14:59:12;;;;;;;4.80;2.80;;;;;;;;;;5073550;28;20470;-75
2022/11/08 15:01:40;;;;;;;2.60;2.27;;;;;;;;;;5073015;28;20455;-75
2022/11/08 15:04:13;;;;;;;3.50;2.00;;;;;;;;;;5072186;28;20994;-75
2022/11/08 15:06:41;;;;;;;2.50;2.40;;;;;;;;;;5073403;28;20436;-75
2022/11/08 15:09:08;;;;;;;2.93;2.70;;;;;;;;;;5073603;28;20437;-76